sensor_id;sensor_type;location;lat;lon;timestamp;P1;durP1;ratioP1;P2;durP2;ratioP2
13743;SDS011;6943;52.368;9.966;2022-12-18T00:01:21;14.47;;;8.63;;
13743;SDS011;6943;52.368;9.966;2022-12-18T00:03:49;12.97;;;8.30;;
13743;SDS011;6943;52.368;9.966;2022-12-18T00:06:16;16.33;;;7.80;;
13743;SDS011;6943;52.368;9.966;2022-12-18T00:08:43;15.43;;;8.83;;
13743;SDS011;6943;52.368;9.966;2022-12-18T00:11:14;13.13;;;8.30;;
13743;SDS011;6943;52.368;9.966;2022-12-18T00:13:42;13.87;;;8.77;;
13743;SDS011;6943;52.368;9.966;2022-12-18T00:16:11;14.43;;;9.07;;
13743;SDS011;6943;52.368;9.966;2022-12-18T00:18:39;12.27;;;8.63;;
13743;SDS011;6943;52.368;9.966;2022-12-18T00:21:06;15.17;;;9.00;;
13743;SDS011;6943;52.368;9.966;2022-12-18T00:23:33;12.03;;;8.43;;
13743;SDS011;6943;52.368;9.966;2022-12-18T00:25:59;14.40;;;8.20;;
13743;SDS011;6943;52.368;9.966;2022-12-18T00:28:26;14.57;;;9.07;;
13743;SDS011;6943;52.368;9.966;2022-12-18T00:30:59;13.80;;;8.77;;
13743;SDS011;6943;52.368;9.966;2022-12-18T00:33:26;13.30;;;8.20;;
13743;SDS011;6943;52.368;9.966;2022-12-18T00:35:51;13.47;;;8.53;;
13743;SDS011;6943;52.368;9.966;2022-12-18T00:38:17;12.37;;;7.90;;
13743;SDS011;6943;52.368;9.966;2022-12-18T00:40:42;12.53;;;8.03;;
13743;SDS011;6943;52.368;9.966;2022-12-18T00:43:08;11.77;;;7.50;;
13743;SDS011;6943;52.368;9.966;2022-12-18T00:45:34;14.90;;;8.10;;
13743;SDS011;6943;52.368;9.966;2022-12-18T00:48:00;13.93;;;8.30;;
13743;SDS011;6943;52.368;9.966;2022-12-18T00:50:25;19.40;;;10.70;;
13743;SDS011;6943;52.368;9.966;2022-12-18T00:52:51;15.57;;;7.93;;
13743;SDS011;6943;52.368;9.966;2022-12-18T00:55:17;13.53;;;8.53;;
13743;SDS011;6943;52.368;9.966;2022-12-18T00:57:43;14.67;;;8.73;;
13743;SDS011;6943;52.368;9.966;2022-12-18T01:00:10;13.27;;;9.40;;
13743;SDS011;6943;52.368;9.966;2022-12-18T01:02:38;15.50;;;8.77;;
13743;SDS011;6943;52.368;9.966;2022-12-18T01:05:03;15.70;;;10.23;;
13743;SDS011;6943;52.368;9.966;2022-12-18T01:07:29;14.17;;;8.13;;
13743;SDS011;6943;52.368;9.966;2022-12-18T01:09:55;12.83;;;8.03;;
13743;SDS011;6943;52.368;9.966;2022-12-18T01:12:20;13.93;;;8.20;;
13743;SDS011;6943;52.368;9.966;2022-12-18T01:14:46;13.27;;;7.80;;
13743;SDS011;6943;52.368;9.966;2022-12-18T01:17:11;50.10;;;28.90;;
13743;SDS011;6943;52.368;9.966;2022-12-18T01:19:37;17.63;;;11.13;;
13743;SDS011;6943;52.368;9.966;2022-12-18T01:22:02;13.53;;;8.97;;
13743;SDS011;6943;52.368;9.966;2022-12-18T01:24:28;16.03;;;8.33;;
13743;SDS011;6943;52.368;9.966;2022-12-18T01:26:53;13.40;;;7.93;;
13743;SDS011;6943;52.368;9.966;2022-12-18T01:29:19;18.00;;;10.53;;
13743;SDS011;6943;52.368;9.966;2022-12-18T01:31:44;18.63;;;8.93;;
13743;SDS011;6943;52.368;9.966;2022-12-18T01:34:10;14.87;;;9.33;;
13743;SDS011;6943;52.368;9.966;2022-12-18T01:36:37;13.07;;;8.57;;
13743;SDS011;6943;52.368;9.966;2022-12-18T01:39:10;23.43;;;12.17;;
13743;SDS011;6943;52.368;9.966;2022-12-18T01:41:38;21.57;;;12.17;;
13743;SDS011;6943;52.368;9.966;2022-12-18T01:50:15;18.53;;;9.47;;
13743;SDS011;6943;52.368;9.966;2022-12-18T01:52:50;13.67;;;8.03;;
13743;SDS011;6943;52.368;9.966;2022-12-18T01:55:19;15.40;;;9.73;;
13743;SDS011;6943;52.368;9.966;2022-12-18T01:57:48;15.30;;;9.57;;
13743;SDS011;6943;52.368;9.966;2022-12-18T02:00:17;15.47;;;9.23;;
13743;SDS011;6943;52.368;9.966;2022-12-18T02:02:47;20.23;;;11.30;;
13743;SDS011;6943;52.368;9.966;2022-12-18T02:05:16;17.03;;;9.90;;
13743;SDS011;6943;52.368;9.966;2022-12-18T02:10:41;13.83;;;7.80;;
13743;SDS011;6943;52.368;9.966;2022-12-18T02:13:32;15.90;;;9.53;;
13743;SDS011;6943;52.368;9.966;2022-12-18T02:18:48;13.03;;;8.00;;
13743;SDS011;6943;52.368;9.966;2022-12-18T02:24:26;15.13;;;8.67;;
13743;SDS011;6943;52.368;9.966;2022-12-18T02:27:01;14.87;;;8.70;;
13743;SDS011;6943;52.368;9.966;2022-12-18T02:29:51;12.10;;;7.33;;
13743;SDS011;6943;52.368;9.966;2022-12-18T02:32:22;12.60;;;7.93;;
13743;SDS011;6943;52.368;9.966;2022-12-18T02:34:52;15.10;;;8.73;;
13743;SDS011;6943;52.368;9.966;2022-12-18T02:37:21;10.57;;;7.50;;
13743;SDS011;6943;52.368;9.966;2022-12-18T02:39:48;11.50;;;7.40;;
13743;SDS011;6943;52.368;9.966;2022-12-18T02:42:16;11.97;;;7.67;;
13743;SDS011;6943;52.368;9.966;2022-12-18T02:44:49;15.77;;;8.23;;
13743;SDS011;6943;52.368;9.966;2022-12-18T02:47:17;12.93;;;7.30;;
13743;SDS011;6943;52.368;9.966;2022-12-18T02:52:19;10.07;;;6.97;;
13743;SDS011;6943;52.368;9.966;2022-12-18T02:57:49;14.53;;;7.30;;
13743;SDS011;6943;52.368;9.966;2022-12-18T03:00:37;11.10;;;7.13;;
13743;SDS011;6943;52.368;9.966;2022-12-18T03:03:14;9.07;;;5.80;;
13743;SDS011;6943;52.368;9.966;2022-12-18T03:05:49;9.20;;;6.20;;
13743;SDS011;6943;52.368;9.966;2022-12-18T03:08:25;8.83;;;6.67;;
13743;SDS011;6943;52.368;9.966;2022-12-18T03:10:55;10.57;;;6.57;;
13743;SDS011;6943;52.368;9.966;2022-12-18T03:13:27;11.53;;;6.97;;
13743;SDS011;6943;52.368;9.966;2022-12-18T03:15:59;9.37;;;6.40;;
13743;SDS011;6943;52.368;9.966;2022-12-18T03:18:29;11.03;;;6.33;;
13743;SDS011;6943;52.368;9.966;2022-12-18T03:21:02;7.90;;;6.07;;
13743;SDS011;6943;52.368;9.966;2022-12-18T03:23:32;9.33;;;5.57;;
13743;SDS011;6943;52.368;9.966;2022-12-18T03:26:02;12.37;;;6.23;;
13743;SDS011;6943;52.368;9.966;2022-12-18T03:28:32;8.97;;;6.33;;
13743;SDS011;6943;52.368;9.966;2022-12-18T03:31:01;8.80;;;6.03;;
13743;SDS011;6943;52.368;9.966;2022-12-18T03:33:31;11.50;;;6.40;;
13743;SDS011;6943;52.368;9.966;2022-12-18T03:36:03;11.40;;;7.57;;
13743;SDS011;6943;52.368;9.966;2022-12-18T03:38:29;10.30;;;6.67;;
13743;SDS011;6943;52.368;9.966;2022-12-18T03:43:42;10.03;;;6.17;;
13743;SDS011;6943;52.368;9.966;2022-12-18T03:46:30;9.83;;;6.20;;
13743;SDS011;6943;52.368;9.966;2022-12-18T03:49:09;9.00;;;6.30;;
13743;SDS011;6943;52.368;9.966;2022-12-18T03:51:42;10.43;;;6.50;;
13743;SDS011;6943;52.368;9.966;2022-12-18T03:54:15;9.20;;;6.20;;
13743;SDS011;6943;52.368;9.966;2022-12-18T03:56:43;10.03;;;5.70;;
13743;SDS011;6943;52.368;9.966;2022-12-18T03:59:16;11.33;;;6.53;;
13743;SDS011;6943;52.368;9.966;2022-12-18T04:01:45;10.97;;;6.40;;
13743;SDS011;6943;52.368;9.966;2022-12-18T04:04:14;7.53;;;5.40;;
13743;SDS011;6943;52.368;9.966;2022-12-18T04:06:41;10.23;;;5.87;;
13743;SDS011;6943;52.368;9.966;2022-12-18T04:09:08;11.10;;;7.40;;
13743;SDS011;6943;52.368;9.966;2022-12-18T04:11:34;10.27;;;6.30;;
13743;SDS011;6943;52.368;9.966;2022-12-18T04:13:59;8.50;;;5.93;;
13743;SDS011;6943;52.368;9.966;2022-12-18T04:16:25;10.80;;;7.10;;
13743;SDS011;6943;52.368;9.966;2022-12-18T04:18:52;10.33;;;5.57;;
13743;SDS011;6943;52.368;9.966;2022-12-18T04:21:17;9.00;;;5.70;;
13743;SDS011;6943;52.368;9.966;2022-12-18T04:23:43;10.10;;;6.03;;
13743;SDS011;6943;52.368;9.966;2022-12-18T04:26:08;7.87;;;5.63;;
13743;SDS011;6943;52.368;9.966;2022-12-18T04:28:34;11.67;;;6.43;;
13743;SDS011;6943;52.368;9.966;2022-12-18T04:30:59;10.90;;;5.80;;
13743;SDS011;6943;52.368;9.966;2022-12-18T04:33:25;10.97;;;6.13;;
13743;SDS011;6943;52.368;9.966;2022-12-18T04:35:50;10.13;;;5.57;;
13743;SDS011;6943;52.368;9.966;2022-12-18T04:38:16;10.83;;;6.67;;
13743;SDS011;6943;52.368;9.966;2022-12-18T04:40:41;7.03;;;5.23;;
13743;SDS011;6943;52.368;9.966;2022-12-18T04:43:08;11.57;;;5.93;;
13743;SDS011;6943;52.368;9.966;2022-12-18T04:45:33;9.93;;;6.03;;
13743;SDS011;6943;52.368;9.966;2022-12-18T04:47:59;7.20;;;4.73;;
13743;SDS011;6943;52.368;9.966;2022-12-18T04:50:26;8.83;;;5.57;;
13743;SDS011;6943;52.368;9.966;2022-12-18T04:52:52;10.07;;;5.40;;
13743;SDS011;6943;52.368;9.966;2022-12-18T04:55:18;8.33;;;5.37;;
13743;SDS011;6943;52.368;9.966;2022-12-18T04:57:43;11.70;;;5.93;;
13743;SDS011;6943;52.368;9.966;2022-12-18T05:00:09;8.43;;;5.50;;
13743;SDS011;6943;52.368;9.966;2022-12-18T05:02:35;7.70;;;5.87;;
13743;SDS011;6943;52.368;9.966;2022-12-18T05:05:00;8.70;;;5.57;;
13743;SDS011;6943;52.368;9.966;2022-12-18T05:07:26;8.17;;;5.37;;
13743;SDS011;6943;52.368;9.966;2022-12-18T05:09:51;5.80;;;4.37;;
13743;SDS011;6943;52.368;9.966;2022-12-18T05:12:17;7.33;;;5.40;;
13743;SDS011;6943;52.368;9.966;2022-12-18T05:14:43;8.07;;;4.90;;
13743;SDS011;6943;52.368;9.966;2022-12-18T05:17:08;8.93;;;5.20;;
13743;SDS011;6943;52.368;9.966;2022-12-18T05:19:34;10.13;;;4.70;;
13743;SDS011;6943;52.368;9.966;2022-12-18T05:21:59;7.40;;;5.23;;
13743;SDS011;6943;52.368;9.966;2022-12-18T05:24:26;6.10;;;4.43;;
13743;SDS011;6943;52.368;9.966;2022-12-18T05:26:51;8.13;;;4.93;;
13743;SDS011;6943;52.368;9.966;2022-12-18T05:29:17;8.93;;;5.27;;
13743;SDS011;6943;52.368;9.966;2022-12-18T05:31:42;9.30;;;5.17;;
13743;SDS011;6943;52.368;9.966;2022-12-18T05:34:08;8.67;;;5.43;;
13743;SDS011;6943;52.368;9.966;2022-12-18T05:36:33;8.97;;;5.40;;
13743;SDS011;6943;52.368;9.966;2022-12-18T05:38:59;9.23;;;4.93;;
13743;SDS011;6943;52.368;9.966;2022-12-18T05:41:25;8.20;;;5.60;;
13743;SDS011;6943;52.368;9.966;2022-12-18T05:43:51;9.80;;;5.43;;
13743;SDS011;6943;52.368;9.966;2022-12-18T05:46:16;5.63;;;4.27;;
13743;SDS011;6943;52.368;9.966;2022-12-18T05:48:43;8.43;;;5.00;;
13743;SDS011;6943;52.368;9.966;2022-12-18T05:51:15;11.13;;;5.07;;
13743;SDS011;6943;52.368;9.966;2022-12-18T05:53:42;8.83;;;5.13;;
13743;SDS011;6943;52.368;9.966;2022-12-18T05:56:10;7.70;;;4.57;;
13743;SDS011;6943;52.368;9.966;2022-12-18T05:58:41;6.83;;;5.13;;
13743;SDS011;6943;52.368;9.966;2022-12-18T06:01:12;6.17;;;4.43;;
13743;SDS011;6943;52.368;9.966;2022-12-18T06:03:42;7.40;;;4.53;;
13743;SDS011;6943;52.368;9.966;2022-12-18T06:06:15;8.53;;;5.27;;
13743;SDS011;6943;52.368;9.966;2022-12-18T06:08:43;7.73;;;5.40;;
13743;SDS011;6943;52.368;9.966;2022-12-18T06:11:09;11.27;;;5.07;;
13743;SDS011;6943;52.368;9.966;2022-12-18T06:13:34;11.20;;;5.50;;
13743;SDS011;6943;52.368;9.966;2022-12-18T06:16:04;9.80;;;5.07;;
13743;SDS011;6943;52.368;9.966;2022-12-18T06:18:30;8.60;;;5.07;;
13743;SDS011;6943;52.368;9.966;2022-12-18T06:20:56;8.00;;;5.23;;
13743;SDS011;6943;52.368;9.966;2022-12-18T06:23:22;8.30;;;4.60;;
13743;SDS011;6943;52.368;9.966;2022-12-18T06:25:48;9.00;;;4.77;;
13743;SDS011;6943;52.368;9.966;2022-12-18T06:28:14;7.67;;;5.27;;
13743;SDS011;6943;52.368;9.966;2022-12-18T06:30:40;8.63;;;4.33;;
13743;SDS011;6943;52.368;9.966;2022-12-18T06:33:08;10.23;;;5.23;;
13743;SDS011;6943;52.368;9.966;2022-12-18T06:35:34;8.17;;;5.30;;
13743;SDS011;6943;52.368;9.966;2022-12-18T06:38:01;7.50;;;5.13;;
13743;SDS011;6943;52.368;9.966;2022-12-18T06:40:27;7.60;;;5.00;;
13743;SDS011;6943;52.368;9.966;2022-12-18T06:42:53;7.97;;;5.57;;
13743;SDS011;6943;52.368;9.966;2022-12-18T06:45:18;10.97;;;5.20;;
13743;SDS011;6943;52.368;9.966;2022-12-18T06:47:44;8.97;;;4.70;;
13743;SDS011;6943;52.368;9.966;2022-12-18T06:50:10;7.17;;;4.77;;
13743;SDS011;6943;52.368;9.966;2022-12-18T06:52:36;7.90;;;5.03;;
13743;SDS011;6943;52.368;9.966;2022-12-18T06:55:02;8.73;;;5.00;;
13743;SDS011;6943;52.368;9.966;2022-12-18T06:57:28;8.77;;;5.33;;
13743;SDS011;6943;52.368;9.966;2022-12-18T06:59:53;9.43;;;5.63;;
13743;SDS011;6943;52.368;9.966;2022-12-18T07:02:19;9.07;;;5.60;;
13743;SDS011;6943;52.368;9.966;2022-12-18T07:04:44;10.20;;;5.97;;
13743;SDS011;6943;52.368;9.966;2022-12-18T07:07:10;12.73;;;6.40;;
13743;SDS011;6943;52.368;9.966;2022-12-18T07:09:35;11.40;;;6.87;;
13743;SDS011;6943;52.368;9.966;2022-12-18T07:12:01;10.43;;;6.67;;
13743;SDS011;6943;52.368;9.966;2022-12-18T07:14:27;10.10;;;6.03;;
13743;SDS011;6943;52.368;9.966;2022-12-18T07:16:53;9.30;;;5.60;;
13743;SDS011;6943;52.368;9.966;2022-12-18T07:19:18;9.30;;;6.17;;
13743;SDS011;6943;52.368;9.966;2022-12-18T07:21:44;11.77;;;7.37;;
13743;SDS011;6943;52.368;9.966;2022-12-18T07:24:09;12.23;;;6.63;;
13743;SDS011;6943;52.368;9.966;2022-12-18T07:26:35;13.10;;;7.37;;
13743;SDS011;6943;52.368;9.966;2022-12-18T07:29:00;12.43;;;6.83;;
13743;SDS011;6943;52.368;9.966;2022-12-18T07:31:26;12.50;;;7.03;;
13743;SDS011;6943;52.368;9.966;2022-12-18T07:33:52;11.50;;;7.03;;
13743;SDS011;6943;52.368;9.966;2022-12-18T07:36:18;13.23;;;8.17;;
13743;SDS011;6943;52.368;9.966;2022-12-18T07:38:46;15.43;;;8.20;;
13743;SDS011;6943;52.368;9.966;2022-12-18T07:41:12;11.40;;;7.27;;
13743;SDS011;6943;52.368;9.966;2022-12-18T07:43:39;13.47;;;9.00;;
13743;SDS011;6943;52.368;9.966;2022-12-18T07:46:05;11.57;;;8.00;;
13743;SDS011;6943;52.368;9.966;2022-12-18T07:48:31;13.00;;;7.80;;
13743;SDS011;6943;52.368;9.966;2022-12-18T07:51:04;13.97;;;7.47;;
13743;SDS011;6943;52.368;9.966;2022-12-18T07:53:31;12.10;;;8.27;;
13743;SDS011;6943;52.368;9.966;2022-12-18T07:55:58;13.63;;;8.30;;
13743;SDS011;6943;52.368;9.966;2022-12-18T07:58:25;13.37;;;8.20;;
13743;SDS011;6943;52.368;9.966;2022-12-18T08:00:51;12.00;;;8.20;;
13743;SDS011;6943;52.368;9.966;2022-12-18T08:03:17;14.10;;;9.00;;
13743;SDS011;6943;52.368;9.966;2022-12-18T08:05:43;13.33;;;8.83;;
13743;SDS011;6943;52.368;9.966;2022-12-18T08:08:08;13.00;;;9.13;;
13743;SDS011;6943;52.368;9.966;2022-12-18T08:10:34;12.47;;;9.10;;
13743;SDS011;6943;52.368;9.966;2022-12-18T08:12:59;11.57;;;7.77;;
13743;SDS011;6943;52.368;9.966;2022-12-18T08:15:25;13.07;;;8.43;;
13743;SDS011;6943;52.368;9.966;2022-12-18T08:17:50;13.97;;;8.90;;
13743;SDS011;6943;52.368;9.966;2022-12-18T08:20:16;12.53;;;8.83;;
13743;SDS011;6943;52.368;9.966;2022-12-18T08:22:43;14.83;;;8.97;;
13743;SDS011;6943;52.368;9.966;2022-12-18T08:25:09;13.27;;;8.00;;
13743;SDS011;6943;52.368;9.966;2022-12-18T08:27:35;12.03;;;8.50;;
13743;SDS011;6943;52.368;9.966;2022-12-18T08:30:00;14.17;;;8.17;;
13743;SDS011;6943;52.368;9.966;2022-12-18T08:32:26;14.13;;;9.00;;
13743;SDS011;6943;52.368;9.966;2022-12-18T08:34:52;14.00;;;8.57;;
13743;SDS011;6943;52.368;9.966;2022-12-18T08:37:18;10.63;;;8.43;;
13743;SDS011;6943;52.368;9.966;2022-12-18T08:39:43;9.90;;;7.63;;
13743;SDS011;6943;52.368;9.966;2022-12-18T08:42:09;12.13;;;7.57;;
13743;SDS011;6943;52.368;9.966;2022-12-18T08:44:54;11.37;;;7.43;;
13743;SDS011;6943;52.368;9.966;2022-12-18T08:47:19;16.10;;;7.20;;
13743;SDS011;6943;52.368;9.966;2022-12-18T08:49:45;13.30;;;9.13;;
13743;SDS011;6943;52.368;9.966;2022-12-18T08:52:10;14.43;;;9.70;;
13743;SDS011;6943;52.368;9.966;2022-12-18T08:54:36;11.53;;;7.27;;
13743;SDS011;6943;52.368;9.966;2022-12-18T08:57:01;10.67;;;7.20;;
13743;SDS011;6943;52.368;9.966;2022-12-18T08:59:27;11.80;;;7.43;;
13743;SDS011;6943;52.368;9.966;2022-12-18T09:01:54;9.13;;;7.10;;
13743;SDS011;6943;52.368;9.966;2022-12-18T09:04:20;13.03;;;7.47;;
13743;SDS011;6943;52.368;9.966;2022-12-18T09:06:45;11.03;;;7.77;;
13743;SDS011;6943;52.368;9.966;2022-12-18T09:09:11;12.60;;;7.70;;
13743;SDS011;6943;52.368;9.966;2022-12-18T09:11:37;11.03;;;7.90;;
13743;SDS011;6943;52.368;9.966;2022-12-18T09:14:03;12.17;;;7.73;;
13743;SDS011;6943;52.368;9.966;2022-12-18T09:16:28;10.73;;;8.43;;
13743;SDS011;6943;52.368;9.966;2022-12-18T09:18:54;11.80;;;8.50;;
13743;SDS011;6943;52.368;9.966;2022-12-18T09:21:24;11.17;;;8.03;;
13743;SDS011;6943;52.368;9.966;2022-12-18T09:23:51;11.17;;;8.07;;
13743;SDS011;6943;52.368;9.966;2022-12-18T09:26:18;11.83;;;7.87;;
13743;SDS011;6943;52.368;9.966;2022-12-18T09:28:43;12.53;;;7.93;;
13743;SDS011;6943;52.368;9.966;2022-12-18T09:31:10;11.93;;;8.70;;
13743;SDS011;6943;52.368;9.966;2022-12-18T09:33:36;13.77;;;8.50;;
13743;SDS011;6943;52.368;9.966;2022-12-18T09:36:03;10.03;;;6.83;;
13743;SDS011;6943;52.368;9.966;2022-12-18T09:38:30;10.93;;;7.50;;
13743;SDS011;6943;52.368;9.966;2022-12-18T09:43:48;11.20;;;7.90;;
13743;SDS011;6943;52.368;9.966;2022-12-18T09:46:23;12.03;;;7.47;;
13743;SDS011;6943;52.368;9.966;2022-12-18T09:48:59;12.63;;;8.53;;
13743;SDS011;6943;52.368;9.966;2022-12-18T09:51:35;11.00;;;7.30;;
13743;SDS011;6943;52.368;9.966;2022-12-18T09:54:05;13.40;;;8.03;;
13743;SDS011;6943;52.368;9.966;2022-12-18T09:56:36;11.20;;;8.17;;
13743;SDS011;6943;52.368;9.966;2022-12-18T09:59:06;13.13;;;8.90;;
13743;SDS011;6943;52.368;9.966;2022-12-18T10:01:51;11.80;;;7.67;;
13743;SDS011;6943;52.368;9.966;2022-12-18T10:04:17;20.63;;;10.13;;
13743;SDS011;6943;52.368;9.966;2022-12-18T10:06:54;14.37;;;8.30;;
13743;SDS011;6943;52.368;9.966;2022-12-18T10:17:40;12.37;;;8.73;;
13743;SDS011;6943;52.368;9.966;2022-12-18T10:22:56;14.83;;;9.47;;
13743;SDS011;6943;52.368;9.966;2022-12-18T10:28:33;16.33;;;8.87;;
13743;SDS011;6943;52.368;9.966;2022-12-18T10:31:01;13.93;;;8.90;;
13743;SDS011;6943;52.368;9.966;2022-12-18T10:33:30;14.83;;;9.50;;
13743;SDS011;6943;52.368;9.966;2022-12-18T10:35:57;16.57;;;9.00;;
13743;SDS011;6943;52.368;9.966;2022-12-18T10:38:27;11.70;;;8.80;;
13743;SDS011;6943;52.368;9.966;2022-12-18T10:43:28;21.80;;;13.07;;
13743;SDS011;6943;52.368;9.966;2022-12-18T10:46:11;25.47;;;14.50;;
13743;SDS011;6943;52.368;9.966;2022-12-18T10:51:15;28.13;;;14.83;;
13743;SDS011;6943;52.368;9.966;2022-12-18T10:53:53;25.83;;;16.03;;
13743;SDS011;6943;52.368;9.966;2022-12-18T10:56:26;26.73;;;14.57;;
13743;SDS011;6943;52.368;9.966;2022-12-18T10:59:04;25.97;;;13.97;;
13743;SDS011;6943;52.368;9.966;2022-12-18T11:04:23;21.80;;;13.93;;
13743;SDS011;6943;52.368;9.966;2022-12-18T11:09:31;21.73;;;12.00;;
13743;SDS011;6943;52.368;9.966;2022-12-18T11:11:59;23.87;;;13.27;;
13743;SDS011;6943;52.368;9.966;2022-12-18T11:14:47;18.63;;;12.43;;
13743;SDS011;6943;52.368;9.966;2022-12-18T11:17:19;20.57;;;12.37;;
13743;SDS011;6943;52.368;9.966;2022-12-18T11:19:46;20.93;;;12.50;;
13743;SDS011;6943;52.368;9.966;2022-12-18T11:22:28;17.90;;;11.50;;
13743;SDS011;6943;52.368;9.966;2022-12-18T11:24:57;14.53;;;10.73;;
13743;SDS011;6943;52.368;9.966;2022-12-18T11:27:24;19.23;;;12.23;;
13743;SDS011;6943;52.368;9.966;2022-12-18T11:29:51;20.23;;;10.57;;
13743;SDS011;6943;52.368;9.966;2022-12-18T11:32:33;19.63;;;11.60;;
13743;SDS011;6943;52.368;9.966;2022-12-18T11:35:15;15.53;;;10.50;;
13743;SDS011;6943;52.368;9.966;2022-12-18T11:37:47;18.50;;;11.00;;
13743;SDS011;6943;52.368;9.966;2022-12-18T11:40:19;20.10;;;12.47;;
13743;SDS011;6943;52.368;9.966;2022-12-18T11:46:26;17.33;;;10.23;;
13743;SDS011;6943;52.368;9.966;2022-12-18T11:48:41;17.53;;;10.03;;
13743;SDS011;6943;52.368;9.966;2022-12-18T11:51:43;14.50;;;9.93;;
13743;SDS011;6943;52.368;9.966;2022-12-18T11:54:27;18.10;;;10.83;;
13743;SDS011;6943;52.368;9.966;2022-12-18T11:56:58;15.70;;;8.93;;
13743;SDS011;6943;52.368;9.966;2022-12-18T12:10:47;17.07;;;9.67;;
13743;SDS011;6943;52.368;9.966;2022-12-18T12:13:42;16.20;;;9.50;;
13743;SDS011;6943;52.368;9.966;2022-12-18T12:22:03;16.40;;;9.80;;
13743;SDS011;6943;52.368;9.966;2022-12-18T12:24:47;13.83;;;9.47;;
13743;SDS011;6943;52.368;9.966;2022-12-18T12:27:55;14.90;;;8.63;;
13743;SDS011;6943;52.368;9.966;2022-12-18T12:36:20;11.57;;;8.20;;
13743;SDS011;6943;52.368;9.966;2022-12-18T12:38:56;13.80;;;9.53;;
13743;SDS011;6943;52.368;9.966;2022-12-18T12:41:27;18.37;;;9.50;;
13743;SDS011;6943;52.368;9.966;2022-12-18T12:44:26;16.73;;;10.60;;
13743;SDS011;6943;52.368;9.966;2022-12-18T12:46:57;15.43;;;9.20;;
13743;SDS011;6943;52.368;9.966;2022-12-18T12:49:28;17.80;;;10.17;;
13743;SDS011;6943;52.368;9.966;2022-12-18T12:52:15;15.93;;;9.87;;
13743;SDS011;6943;52.368;9.966;2022-12-18T12:54:47;18.80;;;9.87;;
13743;SDS011;6943;52.368;9.966;2022-12-18T12:57:16;17.53;;;10.03;;
13743;SDS011;6943;52.368;9.966;2022-12-18T13:00:00;19.33;;;10.97;;
13743;SDS011;6943;52.368;9.966;2022-12-18T13:02:51;19.57;;;10.63;;
13743;SDS011;6943;52.368;9.966;2022-12-18T13:05:31;16.10;;;10.73;;
13743;SDS011;6943;52.368;9.966;2022-12-18T13:08:11;16.73;;;10.57;;
13743;SDS011;6943;52.368;9.966;2022-12-18T13:10:47;15.20;;;9.67;;
13743;SDS011;6943;52.368;9.966;2022-12-18T13:13:13;19.20;;;11.13;;
13743;SDS011;6943;52.368;9.966;2022-12-18T13:15:42;19.83;;;12.93;;
13743;SDS011;6943;52.368;9.966;2022-12-18T13:20:38;16.83;;;11.27;;
13743;SDS011;6943;52.368;9.966;2022-12-18T13:25:53;19.90;;;11.30;;
13743;SDS011;6943;52.368;9.966;2022-12-18T13:40:58;15.57;;;9.87;;
13743;SDS011;6943;52.368;9.966;2022-12-18T13:43:29;18.93;;;11.43;;
13743;SDS011;6943;52.368;9.966;2022-12-18T13:45:59;16.07;;;10.03;;
13743;SDS011;6943;52.368;9.966;2022-12-18T13:48:27;17.90;;;11.60;;
13743;SDS011;6943;52.368;9.966;2022-12-18T13:50:58;21.23;;;12.40;;
13743;SDS011;6943;52.368;9.966;2022-12-18T13:53:30;23.40;;;14.03;;
13743;SDS011;6943;52.368;9.966;2022-12-18T13:56:00;19.07;;;12.30;;
13743;SDS011;6943;52.368;9.966;2022-12-18T13:58:27;18.27;;;12.07;;
13743;SDS011;6943;52.368;9.966;2022-12-18T14:00:53;22.67;;;13.93;;
13743;SDS011;6943;52.368;9.966;2022-12-18T14:03:20;21.33;;;13.87;;
13743;SDS011;6943;52.368;9.966;2022-12-18T14:05:54;17.67;;;11.47;;
13743;SDS011;6943;52.368;9.966;2022-12-18T14:08:25;21.27;;;15.17;;
13743;SDS011;6943;52.368;9.966;2022-12-18T14:10:57;19.93;;;11.47;;
13743;SDS011;6943;52.368;9.966;2022-12-18T14:13:33;26.43;;;15.27;;
13743;SDS011;6943;52.368;9.966;2022-12-18T14:16:04;19.83;;;12.20;;
13743;SDS011;6943;52.368;9.966;2022-12-18T14:18:43;19.23;;;12.93;;
13743;SDS011;6943;52.368;9.966;2022-12-18T14:21:29;16.97;;;9.67;;
13743;SDS011;6943;52.368;9.966;2022-12-18T14:24:13;22.37;;;12.73;;
13743;SDS011;6943;52.368;9.966;2022-12-18T14:26:44;18.97;;;11.63;;
13743;SDS011;6943;52.368;9.966;2022-12-18T14:29:24;21.33;;;12.37;;
13743;SDS011;6943;52.368;9.966;2022-12-18T14:32:34;22.13;;;12.27;;
13743;SDS011;6943;52.368;9.966;2022-12-18T14:34:47;19.50;;;11.77;;
13743;SDS011;6943;52.368;9.966;2022-12-18T14:37:17;16.77;;;9.60;;
13743;SDS011;6943;52.368;9.966;2022-12-18T14:39:53;21.57;;;12.77;;
13743;SDS011;6943;52.368;9.966;2022-12-18T14:42:21;20.50;;;12.23;;
13743;SDS011;6943;52.368;9.966;2022-12-18T14:44:47;20.63;;;12.50;;
13743;SDS011;6943;52.368;9.966;2022-12-18T14:47:14;23.63;;;12.00;;
13743;SDS011;6943;52.368;9.966;2022-12-18T14:49:42;21.13;;;11.87;;
13743;SDS011;6943;52.368;9.966;2022-12-18T14:52:18;22.70;;;12.30;;
13743;SDS011;6943;52.368;9.966;2022-12-18T14:54:50;24.13;;;14.63;;
13743;SDS011;6943;52.368;9.966;2022-12-18T14:57:29;22.07;;;14.63;;
13743;SDS011;6943;52.368;9.966;2022-12-18T15:00:07;21.87;;;12.93;;
13743;SDS011;6943;52.368;9.966;2022-12-18T15:02:49;18.83;;;12.20;;
13743;SDS011;6943;52.368;9.966;2022-12-18T15:05:19;22.27;;;11.67;;
13743;SDS011;6943;52.368;9.966;2022-12-18T15:07:54;19.50;;;12.40;;
13743;SDS011;6943;52.368;9.966;2022-12-18T15:10:22;20.50;;;13.10;;
13743;SDS011;6943;52.368;9.966;2022-12-18T15:20:32;27.00;;;14.13;;
13743;SDS011;6943;52.368;9.966;2022-12-18T15:23:21;19.33;;;12.77;;
13743;SDS011;6943;52.368;9.966;2022-12-18T15:26:02;25.80;;;15.07;;
13743;SDS011;6943;52.368;9.966;2022-12-18T15:28:34;16.80;;;11.30;;
13743;SDS011;6943;52.368;9.966;2022-12-18T15:31:02;25.03;;;14.23;;
13743;SDS011;6943;52.368;9.966;2022-12-18T15:33:31;25.07;;;13.53;;
13743;SDS011;6943;52.368;9.966;2022-12-18T15:36:03;18.57;;;10.93;;
13743;SDS011;6943;52.368;9.966;2022-12-18T15:38:30;23.03;;;13.67;;
13743;SDS011;6943;52.368;9.966;2022-12-18T15:40:57;21.20;;;13.43;;
13743;SDS011;6943;52.368;9.966;2022-12-18T15:43:23;25.27;;;14.10;;
13743;SDS011;6943;52.368;9.966;2022-12-18T15:46:02;25.17;;;14.03;;
13743;SDS011;6943;52.368;9.966;2022-12-18T15:48:29;24.13;;;13.93;;
13743;SDS011;6943;52.368;9.966;2022-12-18T15:50:56;25.67;;;14.83;;
13743;SDS011;6943;52.368;9.966;2022-12-18T15:53:23;23.70;;;13.60;;
13743;SDS011;6943;52.368;9.966;2022-12-18T15:55:50;23.57;;;14.20;;
13743;SDS011;6943;52.368;9.966;2022-12-18T15:58:34;19.60;;;12.77;;
13743;SDS011;6943;52.368;9.966;2022-12-18T16:01:00;25.13;;;15.33;;
13743;SDS011;6943;52.368;9.966;2022-12-18T16:03:26;19.27;;;12.23;;
13743;SDS011;6943;52.368;9.966;2022-12-18T16:05:52;23.50;;;14.93;;
13743;SDS011;6943;52.368;9.966;2022-12-18T16:08:18;26.00;;;15.00;;
13743;SDS011;6943;52.368;9.966;2022-12-18T16:10:44;23.83;;;13.73;;
13743;SDS011;6943;52.368;9.966;2022-12-18T16:13:10;26.13;;;15.27;;
13743;SDS011;6943;52.368;9.966;2022-12-18T16:15:38;22.40;;;15.10;;
13743;SDS011;6943;52.368;9.966;2022-12-18T16:18:04;21.57;;;13.13;;
13743;SDS011;6943;52.368;9.966;2022-12-18T16:22:57;21.20;;;12.83;;
13743;SDS011;6943;52.368;9.966;2022-12-18T16:25:24;23.53;;;12.60;;
13743;SDS011;6943;52.368;9.966;2022-12-18T16:27:51;23.80;;;13.60;;
13743;SDS011;6943;52.368;9.966;2022-12-18T16:30:21;23.37;;;14.77;;
13743;SDS011;6943;52.368;9.966;2022-12-18T16:32:53;20.47;;;13.23;;
13743;SDS011;6943;52.368;9.966;2022-12-18T16:35:19;19.50;;;13.23;;
13743;SDS011;6943;52.368;9.966;2022-12-18T16:37:44;17.33;;;11.87;;
13743;SDS011;6943;52.368;9.966;2022-12-18T16:40:11;21.33;;;12.20;;
13743;SDS011;6943;52.368;9.966;2022-12-18T16:42:39;21.63;;;13.13;;
13743;SDS011;6943;52.368;9.966;2022-12-18T16:45:07;22.87;;;13.20;;